sensor_id;sensor_type;location;lat;lon;timestamp;P1;durP1;ratioP1;P2;durP2;ratioP2
21758;SDS011;11041;50.854;20.580;2023-06-10T00:00:18;16.20;;;14.30;;
21758;SDS011;11041;50.854;20.580;2023-06-10T00:03:06;15.63;;;14.00;;
21758;SDS011;11041;50.854;20.580;2023-06-10T00:05:34;14.80;;;13.23;;
21758;SDS011;11041;50.854;20.580;2023-06-10T00:08:04;15.05;;;13.25;;
21758;SDS011;11041;50.854;20.580;2023-06-10T00:10:37;15.38;;;13.43;;
21758;SDS011;11041;50.854;20.580;2023-06-10T00:13:04;14.80;;;13.13;;
21758;SDS011;11041;50.854;20.580;2023-06-10T00:15:37;15.57;;;13.05;;
21758;SDS011;11041;50.854;20.580;2023-06-10T00:18:04;13.55;;;11.65;;
21758;SDS011;11041;50.854;20.580;2023-06-10T00:20:31;11.88;;;10.70;;
21758;SDS011;11041;50.854;20.580;2023-06-10T00:22:58;13.10;;;11.80;;
21758;SDS011;11041;50.854;20.580;2023-06-10T00:25:28;13.43;;;12.15;;
21758;SDS011;11041;50.854;20.580;2023-06-10T00:27:55;13.90;;;11.82;;
21758;SDS011;11041;50.854;20.580;2023-06-10T00:30:21;15.98;;;12.45;;
21758;SDS011;11041;50.854;20.580;2023-06-10T00:32:48;14.48;;;12.52;;
21758;SDS011;11041;50.854;20.580;2023-06-10T00:35:15;15.45;;;12.88;;
21758;SDS011;11041;50.854;20.580;2023-06-10T00:37:41;15.32;;;12.52;;
21758;SDS011;11041;50.854;20.580;2023-06-10T00:40:08;13.48;;;12.15;;
21758;SDS011;11041;50.854;20.580;2023-06-10T00:42:36;14.05;;;11.40;;
21758;SDS011;11041;50.854;20.580;2023-06-10T00:45:03;13.52;;;12.27;;
21758;SDS011;11041;50.854;20.580;2023-06-10T00:47:30;13.82;;;11.45;;
21758;SDS011;11041;50.854;20.580;2023-06-10T00:49:57;13.68;;;12.38;;
21758;SDS011;11041;50.854;20.580;2023-06-10T00:52:25;14.15;;;12.63;;
21758;SDS011;11041;50.854;20.580;2023-06-10T00:54:58;15.23;;;12.55;;
21758;SDS011;11041;50.854;20.580;2023-06-10T00:57:25;15.05;;;12.02;;
21758;SDS011;11041;50.854;20.580;2023-06-10T00:59:52;13.93;;;12.50;;
21758;SDS011;11041;50.854;20.580;2023-06-10T01:02:28;14.77;;;11.43;;
21758;SDS011;11041;50.854;20.580;2023-06-10T01:05:48;14.50;;;11.25;;
21758;SDS011;11041;50.854;20.580;2023-06-10T01:08:41;12.73;;;10.73;;
21758;SDS011;11041;50.854;20.580;2023-06-10T01:14:35;14.57;;;10.80;;
21758;SDS011;11041;50.854;20.580;2023-06-10T01:17:02;13.45;;;10.73;;
21758;SDS011;11041;50.854;20.580;2023-06-10T01:19:30;11.48;;;10.40;;
21758;SDS011;11041;50.854;20.580;2023-06-10T01:21:59;11.60;;;10.50;;
21758;SDS011;11041;50.854;20.580;2023-06-10T01:24:26;15.07;;;11.25;;
21758;SDS011;11041;50.854;20.580;2023-06-10T01:26:55;12.98;;;11.52;;
21758;SDS011;11041;50.854;20.580;2023-06-10T01:29:35;15.60;;;11.88;;
21758;SDS011;11041;50.854;20.580;2023-06-10T01:35:03;11.48;;;10.20;;
21758;SDS011;11041;50.854;20.580;2023-06-10T01:37:34;11.13;;;10.10;;
21758;SDS011;11041;50.854;20.580;2023-06-10T01:40:03;11.63;;;10.63;;
21758;SDS011;11041;50.854;20.580;2023-06-10T01:42:32;13.52;;;11.60;;
21758;SDS011;11041;50.854;20.580;2023-06-10T01:44:59;13.32;;;9.65;;
21758;SDS011;11041;50.854;20.580;2023-06-10T01:47:26;12.25;;;10.32;;
21758;SDS011;11041;50.854;20.580;2023-06-10T01:49:53;12.18;;;10.73;;
21758;SDS011;11041;50.854;20.580;2023-06-10T01:52:26;12.10;;;10.85;;
21758;SDS011;11041;50.854;20.580;2023-06-10T01:54:54;12.65;;;10.65;;
21758;SDS011;11041;50.854;20.580;2023-06-10T01:57:20;11.13;;;10.00;;
21758;SDS011;11041;50.854;20.580;2023-06-10T01:59:47;14.55;;;11.02;;
21758;SDS011;11041;50.854;20.580;2023-06-10T02:02:15;14.65;;;11.07;;
21758;SDS011;11041;50.854;20.580;2023-06-10T02:04:52;11.68;;;10.63;;
21758;SDS011;11041;50.854;20.580;2023-06-10T02:07:19;11.77;;;9.25;;
21758;SDS011;11041;50.854;20.580;2023-06-10T02:09:46;10.13;;;9.07;;
21758;SDS011;11041;50.854;20.580;2023-06-10T02:12:12;10.35;;;9.38;;
21758;SDS011;11041;50.854;20.580;2023-06-10T02:14:39;11.70;;;9.82;;
21758;SDS011;11041;50.854;20.580;2023-06-10T02:17:05;12.95;;;10.40;;
21758;SDS011;11041;50.854;20.580;2023-06-10T02:19:33;13.25;;;9.60;;
21758;SDS011;11041;50.854;20.580;2023-06-10T02:22:22;12.40;;;10.10;;
21758;SDS011;11041;50.854;20.580;2023-06-10T02:24:49;13.45;;;10.68;;
21758;SDS011;11041;50.854;20.580;2023-06-10T02:27:17;11.55;;;10.35;;
21758;SDS011;11041;50.854;20.580;2023-06-10T02:29:45;11.63;;;10.45;;
21758;SDS011;11041;50.854;20.580;2023-06-10T02:32:14;13.32;;;10.85;;
21758;SDS011;11041;50.854;20.580;2023-06-10T02:34:45;11.60;;;10.60;;
21758;SDS011;11041;50.854;20.580;2023-06-10T02:37:12;12.98;;;10.48;;
21758;SDS011;11041;50.854;20.580;2023-06-10T02:39:41;11.73;;;10.63;;
21758;SDS011;11041;50.854;20.580;2023-06-10T02:42:07;10.88;;;9.90;;
21758;SDS011;11041;50.854;20.580;2023-06-10T02:44:34;10.98;;;9.90;;
21758;SDS011;11041;50.854;20.580;2023-06-10T02:47:02;12.23;;;9.43;;
21758;SDS011;11041;50.854;20.580;2023-06-10T02:49:34;9.77;;;8.70;;
21758;SDS011;11041;50.854;20.580;2023-06-10T02:52:00;9.55;;;8.65;;
21758;SDS011;11041;50.854;20.580;2023-06-10T02:54:28;9.45;;;8.65;;
21758;SDS011;11041;50.854;20.580;2023-06-10T02:56:54;11.25;;;9.02;;
21758;SDS011;11041;50.854;20.580;2023-06-10T02:59:23;12.20;;;9.18;;
21758;SDS011;11041;50.854;20.580;2023-06-10T03:01:53;10.30;;;8.77;;
21758;SDS011;11041;50.854;20.580;2023-06-10T03:04:27;10.20;;;9.18;;
21758;SDS011;11041;50.854;20.580;2023-06-10T03:06:54;10.05;;;8.73;;
21758;SDS011;11041;50.854;20.580;2023-06-10T03:09:21;10.18;;;8.77;;
21758;SDS011;11041;50.854;20.580;2023-06-10T03:11:47;10.32;;;8.68;;
21758;SDS011;11041;50.854;20.580;2023-06-10T03:14:14;10.05;;;9.05;;
21758;SDS011;11041;50.854;20.580;2023-06-10T03:16:40;10.00;;;9.10;;
21758;SDS011;11041;50.854;20.580;2023-06-10T03:19:08;9.98;;;9.07;;
21758;SDS011;11041;50.854;20.580;2023-06-10T03:21:35;11.88;;;9.38;;
21758;SDS011;11041;50.854;20.580;2023-06-10T03:24:03;10.05;;;9.10;;
21758;SDS011;11041;50.854;20.580;2023-06-10T03:26:30;9.23;;;8.32;;
21758;SDS011;11041;50.854;20.580;2023-06-10T03:28:57;8.60;;;7.75;;
21758;SDS011;11041;50.854;20.580;2023-06-10T03:31:23;9.15;;;8.23;;
21758;SDS011;11041;50.854;20.580;2023-06-10T03:33:50;12.00;;;9.15;;
21758;SDS011;11041;50.854;20.580;2023-06-10T03:36:17;9.60;;;8.13;;
21758;SDS011;11041;50.854;20.580;2023-06-10T03:38:43;8.93;;;8.02;;
21758;SDS011;11041;50.854;20.580;2023-06-10T03:41:10;9.27;;;8.32;;
21758;SDS011;11041;50.854;20.580;2023-06-10T03:43:37;10.23;;;8.43;;
21758;SDS011;11041;50.854;20.580;2023-06-10T03:46:06;8.50;;;7.70;;
21758;SDS011;11041;50.854;20.580;2023-06-10T03:48:32;8.90;;;8.00;;
21758;SDS011;11041;50.854;20.580;2023-06-10T03:50:58;7.95;;;7.25;;
21758;SDS011;11041;50.854;20.580;2023-06-10T03:53:25;7.90;;;7.15;;
21758;SDS011;11041;50.854;20.580;2023-06-10T03:55:51;10.90;;;8.15;;
21758;SDS011;11041;50.854;20.580;2023-06-10T03:58:18;8.48;;;7.63;;
21758;SDS011;11041;50.854;20.580;2023-06-10T04:00:45;8.77;;;7.97;;
21758;SDS011;11041;50.854;20.580;2023-06-10T04:03:12;8.85;;;7.88;;
21758;SDS011;11041;50.854;20.580;2023-06-10T04:05:40;8.10;;;7.35;;
21758;SDS011;11041;50.854;20.580;2023-06-10T04:08:08;8.48;;;7.43;;
21758;SDS011;11041;50.854;20.580;2023-06-10T04:10:34;9.27;;;7.10;;
21758;SDS011;11041;50.854;20.580;2023-06-10T04:13:01;9.40;;;7.70;;
21758;SDS011;11041;50.854;20.580;2023-06-10T04:15:29;7.72;;;6.72;;
21758;SDS011;11041;50.854;20.580;2023-06-10T04:17:59;8.48;;;6.38;;
21758;SDS011;11041;50.854;20.580;2023-06-10T04:20:26;7.55;;;6.60;;
21758;SDS011;11041;50.854;20.580;2023-06-10T04:22:54;9.32;;;7.05;;
21758;SDS011;11041;50.854;20.580;2023-06-10T04:25:20;8.88;;;6.45;;
21758;SDS011;11041;50.854;20.580;2023-06-10T04:27:47;7.53;;;6.70;;
21758;SDS011;11041;50.854;20.580;2023-06-10T04:30:13;7.85;;;6.93;;
21758;SDS011;11041;50.854;20.580;2023-06-10T04:32:41;7.20;;;6.47;;
21758;SDS011;11041;50.854;20.580;2023-06-10T04:35:08;6.85;;;6.25;;
21758;SDS011;11041;50.854;20.580;2023-06-10T04:37:39;7.22;;;6.63;;
21758;SDS011;11041;50.854;20.580;2023-06-10T04:40:06;10.07;;;6.40;;
21758;SDS011;11041;50.854;20.580;2023-06-10T04:42:34;8.48;;;7.05;;
21758;SDS011;11041;50.854;20.580;2023-06-10T04:45:01;7.35;;;6.65;;
21758;SDS011;11041;50.854;20.580;2023-06-10T04:47:29;7.20;;;6.50;;
21758;SDS011;11041;50.854;20.580;2023-06-10T04:49:59;7.47;;;6.70;;
21758;SDS011;11041;50.854;20.580;2023-06-10T04:52:27;10.75;;;6.93;;
21758;SDS011;11041;50.854;20.580;2023-06-10T04:54:53;8.07;;;7.38;;
21758;SDS011;11041;50.854;20.580;2023-06-10T04:57:20;8.30;;;7.50;;
21758;SDS011;11041;50.854;20.580;2023-06-10T04:59:47;7.97;;;7.18;;
21758;SDS011;11041;50.854;20.580;2023-06-10T05:02:14;8.75;;;7.75;;
21758;SDS011;11041;50.854;20.580;2023-06-10T05:04:40;9.13;;;8.32;;
21758;SDS011;11041;50.854;20.580;2023-06-10T05:07:07;9.20;;;8.40;;
21758;SDS011;11041;50.854;20.580;2023-06-10T05:09:34;9.80;;;8.90;;
21758;SDS011;11041;50.854;20.580;2023-06-10T05:12:01;14.98;;;9.32;;
21758;SDS011;11041;50.854;20.580;2023-06-10T05:14:28;11.43;;;10.32;;
21758;SDS011;11041;50.854;20.580;2023-06-10T05:16:56;13.45;;;12.10;;
21758;SDS011;11041;50.854;20.580;2023-06-10T05:19:22;12.93;;;11.52;;
21758;SDS011;11041;50.854;20.580;2023-06-10T05:21:49;12.88;;;11.57;;
21758;SDS011;11041;50.854;20.580;2023-06-10T05:24:15;13.30;;;11.90;;
21758;SDS011;11041;50.854;20.580;2023-06-10T05:26:45;13.50;;;12.13;;
21758;SDS011;11041;50.854;20.580;2023-06-10T05:29:12;14.73;;;11.38;;
21758;SDS011;11041;50.854;20.580;2023-06-10T05:31:39;14.48;;;13.07;;
21758;SDS011;11041;50.854;20.580;2023-06-10T05:34:05;13.75;;;12.45;;
21758;SDS011;11041;50.854;20.580;2023-06-10T05:36:32;15.15;;;12.63;;
21758;SDS011;11041;50.854;20.580;2023-06-10T05:38:58;14.02;;;12.73;;
21758;SDS011;11041;50.854;20.580;2023-06-10T05:41:25;14.50;;;12.38;;
21758;SDS011;11041;50.854;20.580;2023-06-10T05:43:51;13.63;;;12.32;;
21758;SDS011;11041;50.854;20.580;2023-06-10T05:46:18;13.50;;;11.50;;
21758;SDS011;11041;50.854;20.580;2023-06-10T05:48:46;13.85;;;12.00;;
21758;SDS011;11041;50.854;20.580;2023-06-10T05:51:13;14.00;;;11.95;;
21758;SDS011;11041;50.854;20.580;2023-06-10T05:53:39;16.45;;;12.15;;
21758;SDS011;11041;50.854;20.580;2023-06-10T05:56:06;14.60;;;11.70;;
21758;SDS011;11041;50.854;20.580;2023-06-10T05:58:32;13.55;;;11.70;;
21758;SDS011;11041;50.854;20.580;2023-06-10T06:00:59;13.50;;;12.20;;
21758;SDS011;11041;50.854;20.580;2023-06-10T06:03:25;13.77;;;12.50;;
21758;SDS011;11041;50.854;20.580;2023-06-10T06:05:54;13.43;;;12.20;;
21758;SDS011;11041;50.854;20.580;2023-06-10T06:08:20;13.25;;;11.88;;
21758;SDS011;11041;50.854;20.580;2023-06-10T06:10:47;14.40;;;12.95;;
21758;SDS011;11041;50.854;20.580;2023-06-10T06:13:14;15.40;;;11.82;;
21758;SDS011;11041;50.854;20.580;2023-06-10T06:15:40;13.18;;;11.88;;
21758;SDS011;11041;50.854;20.580;2023-06-10T06:18:07;13.27;;;11.95;;
21758;SDS011;11041;50.854;20.580;2023-06-10T06:20:33;13.25;;;11.98;;
21758;SDS011;11041;50.854;20.580;2023-06-10T06:23:00;12.75;;;11.40;;
21758;SDS011;11041;50.854;20.580;2023-06-10T06:25:27;13.40;;;11.98;;
21758;SDS011;11041;50.854;20.580;2023-06-10T06:27:54;14.77;;;13.15;;
21758;SDS011;11041;50.854;20.580;2023-06-10T06:30:20;17.23;;;13.25;;
21758;SDS011;11041;50.854;20.580;2023-06-10T06:32:47;17.20;;;13.25;;
21758;SDS011;11041;50.854;20.580;2023-06-10T06:35:13;11.30;;;9.98;;
21758;SDS011;11041;50.854;20.580;2023-06-10T06:37:40;11.10;;;9.57;;
21758;SDS011;11041;50.854;20.580;2023-06-10T06:40:07;10.65;;;9.57;;
21758;SDS011;11041;50.854;20.580;2023-06-10T06:42:34;11.55;;;9.52;;
21758;SDS011;11041;50.854;20.580;2023-06-10T06:45:00;11.23;;;10.20;;
21758;SDS011;11041;50.854;20.580;2023-06-10T06:47:27;12.52;;;9.57;;
21758;SDS011;11041;50.854;20.580;2023-06-10T06:49:53;10.50;;;9.48;;
21758;SDS011;11041;50.854;20.580;2023-06-10T06:52:20;10.88;;;9.77;;
21758;SDS011;11041;50.854;20.580;2023-06-10T06:54:48;10.60;;;9.50;;
21758;SDS011;11041;50.854;20.580;2023-06-10T06:57:15;11.05;;;10.05;;
21758;SDS011;11041;50.854;20.580;2023-06-10T06:59:41;10.00;;;9.05;;
21758;SDS011;11041;50.854;20.580;2023-06-10T07:02:08;11.63;;;9.13;;
21758;SDS011;11041;50.854;20.580;2023-06-10T07:04:34;10.73;;;9.63;;
21758;SDS011;11041;50.854;20.580;2023-06-10T07:07:01;11.65;;;10.48;;
21758;SDS011;11041;50.854;20.580;2023-06-10T07:09:28;11.32;;;10.32;;
21758;SDS011;11041;50.854;20.580;2023-06-10T07:11:54;11.18;;;10.13;;
21758;SDS011;11041;50.854;20.580;2023-06-10T07:14:21;12.07;;;9.15;;
21758;SDS011;11041;50.854;20.580;2023-06-10T07:16:47;11.23;;;10.23;;
21758;SDS011;11041;50.854;20.580;2023-06-10T07:19:15;11.93;;;9.45;;
21758;SDS011;11041;50.854;20.580;2023-06-10T07:21:42;9.32;;;8.45;;
21758;SDS011;11041;50.854;20.580;2023-06-10T07:24:09;10.82;;;9.82;;
21758;SDS011;11041;50.854;20.580;2023-06-10T07:26:35;10.10;;;9.13;;
21758;SDS011;11041;50.854;20.580;2023-06-10T07:29:02;10.00;;;9.10;;
21758;SDS011;11041;50.854;20.580;2023-06-10T07:31:28;10.55;;;9.15;;
21758;SDS011;11041;50.854;20.580;2023-06-10T07:33:55;9.75;;;8.55;;
21758;SDS011;11041;50.854;20.580;2023-06-10T07:36:21;9.88;;;8.93;;
21758;SDS011;11041;50.854;20.580;2023-06-10T07:38:48;9.15;;;8.35;;
21758;SDS011;11041;50.854;20.580;2023-06-10T07:41:14;9.10;;;8.20;;
21758;SDS011;11041;50.854;20.580;2023-06-10T07:43:43;8.70;;;7.90;;
21758;SDS011;11041;50.854;20.580;2023-06-10T07:46:10;9.05;;;8.23;;
21758;SDS011;11041;50.854;20.580;2023-06-10T07:48:37;8.93;;;8.02;;
21758;SDS011;11041;50.854;20.580;2023-06-10T07:51:03;9.35;;;8.30;;
21758;SDS011;11041;50.854;20.580;2023-06-10T07:53:30;8.82;;;7.88;;
21758;SDS011;11041;50.854;20.580;2023-06-10T07:55:56;8.70;;;7.80;;
21758;SDS011;11041;50.854;20.580;2023-06-10T07:58:23;8.25;;;7.45;;
21758;SDS011;11041;50.854;20.580;2023-06-10T08:00:49;9.52;;;7.95;;
21758;SDS011;11041;50.854;20.580;2023-06-10T08:03:16;10.35;;;7.55;;
21758;SDS011;11041;50.854;20.580;2023-06-10T08:05:43;8.13;;;7.32;;
21758;SDS011;11041;50.854;20.580;2023-06-10T08:08:09;8.70;;;7.35;;
21758;SDS011;11041;50.854;20.580;2023-06-10T08:10:36;7.43;;;6.68;;
21758;SDS011;11041;50.854;20.580;2023-06-10T08:13:02;8.38;;;7.57;;
21758;SDS011;11041;50.854;20.580;2023-06-10T08:15:29;7.38;;;6.75;;
21758;SDS011;11041;50.854;20.580;2023-06-10T08:17:55;7.78;;;6.60;;
21758;SDS011;11041;50.854;20.580;2023-06-10T08:20:22;8.30;;;6.45;;
21758;SDS011;11041;50.854;20.580;2023-06-10T08:22:48;6.82;;;6.13;;
21758;SDS011;11041;50.854;20.580;2023-06-10T08:25:15;6.72;;;6.03;;
21758;SDS011;11041;50.854;20.580;2023-06-10T08:27:41;9.23;;;6.00;;
21758;SDS011;11041;50.854;20.580;2023-06-10T08:30:08;7.65;;;6.43;;
21758;SDS011;11041;50.854;20.580;2023-06-10T08:32:36;7.38;;;6.55;;
21758;SDS011;11041;50.854;20.580;2023-06-10T08:35:03;8.00;;;5.80;;
21758;SDS011;11041;50.854;20.580;2023-06-10T08:37:30;6.45;;;5.85;;
21758;SDS011;11041;50.854;20.580;2023-06-10T08:39:57;6.20;;;5.60;;
21758;SDS011;11041;50.854;20.580;2023-06-10T08:42:39;6.40;;;5.85;;
21758;SDS011;11041;50.854;20.580;2023-06-10T08:45:16;6.25;;;5.65;;
21758;SDS011;11041;50.854;20.580;2023-06-10T08:47:45;6.57;;;5.88;;
21758;SDS011;11041;50.854;20.580;2023-06-10T08:50:16;6.85;;;5.78;;
21758;SDS011;11041;50.854;20.580;2023-06-10T08:52:45;6.68;;;6.07;;
21758;SDS011;11041;50.854;20.580;2023-06-10T08:55:37;6.18;;;5.68;;
21758;SDS011;11041;50.854;20.580;2023-06-10T08:58:07;6.30;;;5.70;;
21758;SDS011;11041;50.854;20.580;2023-06-10T09:00:34;6.38;;;5.85;;
21758;SDS011;11041;50.854;20.580;2023-06-10T09:03:02;6.22;;;5.65;;
21758;SDS011;11041;50.854;20.580;2023-06-10T09:05:33;7.15;;;5.38;;
21758;SDS011;11041;50.854;20.580;2023-06-10T09:08:02;6.60;;;5.55;;
21758;SDS011;11041;50.854;20.580;2023-06-10T09:10:29;6.28;;;5.68;;
21758;SDS011;11041;50.854;20.580;2023-06-10T09:12:56;6.03;;;5.53;;
21758;SDS011;11041;50.854;20.580;2023-06-10T09:15:23;6.10;;;5.13;;
21758;SDS011;11041;50.854;20.580;2023-06-10T09:17:50;8.18;;;6.03;;
21758;SDS011;11041;50.854;20.580;2023-06-10T09:20:17;6.18;;;4.95;;
21758;SDS011;11041;50.854;20.580;2023-06-10T09:22:44;5.30;;;4.80;;
21758;SDS011;11041;50.854;20.580;2023-06-10T09:25:14;6.55;;;5.07;;
21758;SDS011;11041;50.854;20.580;2023-06-10T09:27:47;6.22;;;5.65;;
21758;SDS011;11041;50.854;20.580;2023-06-10T09:30:25;8.52;;;5.88;;
21758;SDS011;11041;50.854;20.580;2023-06-10T09:33:00;6.68;;;5.97;;
21758;SDS011;11041;50.854;20.580;2023-06-10T09:35:35;6.47;;;5.95;;
21758;SDS011;11041;50.854;20.580;2023-06-10T09:38:01;7.30;;;5.68;;
21758;SDS011;11041;50.854;20.580;2023-06-10T09:40:28;5.88;;;5.35;;
21758;SDS011;11041;50.854;20.580;2023-06-10T09:43:00;5.15;;;4.75;;
21758;SDS011;11041;50.854;20.580;2023-06-10T09:45:29;4.30;;;3.90;;
21758;SDS011;11041;50.854;20.580;2023-06-10T09:47:57;4.90;;;4.47;;
21758;SDS011;11041;50.854;20.580;2023-06-10T09:50:24;5.60;;;4.05;;
21758;SDS011;11041;50.854;20.580;2023-06-10T09:52:51;10.00;;;3.95;;
21758;SDS011;11041;50.854;20.580;2023-06-10T09:55:18;4.30;;;4.00;;
21758;SDS011;11041;50.854;20.580;2023-06-10T09:57:45;4.22;;;3.92;;
21758;SDS011;11041;50.854;20.580;2023-06-10T10:00:17;5.65;;;4.72;;
21758;SDS011;11041;50.854;20.580;2023-06-10T10:02:48;5.93;;;4.95;;
21758;SDS011;11041;50.854;20.580;2023-06-10T10:05:17;4.68;;;4.28;;
21758;SDS011;11041;50.854;20.580;2023-06-10T10:07:47;5.70;;;4.70;;
21758;SDS011;11041;50.854;20.580;2023-06-10T10:10:15;4.85;;;4.45;;
21758;SDS011;11041;50.854;20.580;2023-06-10T10:12:45;5.47;;;4.97;;
21758;SDS011;11041;50.854;20.580;2023-06-10T10:15:15;5.53;;;5.03;;
21758;SDS011;11041;50.854;20.580;2023-06-10T10:20:29;4.82;;;4.43;;
21758;SDS011;11041;50.854;20.580;2023-06-10T10:23:01;9.38;;;4.78;;
21758;SDS011;11041;50.854;20.580;2023-06-10T10:25:32;6.28;;;4.72;;
21758;SDS011;11041;50.854;20.580;2023-06-10T10:28:29;5.05;;;4.65;;
21758;SDS011;11041;50.854;20.580;2023-06-10T10:31:08;5.35;;;4.43;;
21758;SDS011;11041;50.854;20.580;2023-06-10T10:33:38;4.82;;;4.43;;
21758;SDS011;11041;50.854;20.580;2023-06-10T10:36:25;6.10;;;5.30;;
21758;SDS011;11041;50.854;20.580;2023-06-10T10:38:54;5.20;;;4.80;;
21758;SDS011;11041;50.854;20.580;2023-06-10T10:41:22;5.05;;;4.55;;
21758;SDS011;11041;50.854;20.580;2023-06-10T10:43:51;6.13;;;5.53;;
21758;SDS011;11041;50.854;20.580;2023-06-10T10:46:19;6.18;;;5.43;;
21758;SDS011;11041;50.854;20.580;2023-06-10T10:48:47;7.15;;;6.18;;
21758;SDS011;11041;50.854;20.580;2023-06-10T10:51:23;6.68;;;6.13;;
21758;SDS011;11041;50.854;20.580;2023-06-10T10:56:39;6.53;;;6.03;;
21758;SDS011;11041;50.854;20.580;2023-06-10T11:02:35;7.30;;;5.90;;
21758;SDS011;11041;50.854;20.580;2023-06-10T11:05:14;6.30;;;5.80;;
21758;SDS011;11041;50.854;20.580;2023-06-10T11:07:52;7.05;;;6.43;;
21758;SDS011;11041;50.854;20.580;2023-06-10T11:10:30;7.25;;;5.40;;
21758;SDS011;11041;50.854;20.580;2023-06-10T11:13:06;6.60;;;5.97;;
21758;SDS011;11041;50.854;20.580;2023-06-10T11:15:34;6.00;;;5.50;;
21758;SDS011;11041;50.854;20.580;2023-06-10T11:21:07;5.65;;;5.03;;
21758;SDS011;11041;50.854;20.580;2023-06-10T11:23:40;4.72;;;4.35;;
21758;SDS011;11041;50.854;20.580;2023-06-10T11:31:34;7.25;;;4.65;;
21758;SDS011;11041;50.854;20.580;2023-06-10T11:34:09;4.68;;;4.13;;
21758;SDS011;11041;50.854;20.580;2023-06-10T11:36:40;5.07;;;4.60;;
21758;SDS011;11041;50.854;20.580;2023-06-10T11:39:11;4.72;;;4.25;;
21758;SDS011;11041;50.854;20.580;2023-06-10T11:41:38;4.50;;;4.10;;
21758;SDS011;11041;50.854;20.580;2023-06-10T11:46:38;5.30;;;4.47;;
21758;SDS011;11041;50.854;20.580;2023-06-10T11:49:05;5.75;;;4.93;;
21758;SDS011;11041;50.854;20.580;2023-06-10T11:51:33;5.05;;;4.55;;
21758;SDS011;11041;50.854;20.580;2023-06-10T11:54:08;4.57;;;4.28;;
21758;SDS011;11041;50.854;20.580;2023-06-10T11:56:35;4.95;;;3.63;;
21758;SDS011;11041;50.854;20.580;2023-06-10T11:59:03;4.07;;;3.78;;
21758;SDS011;11041;50.854;20.580;2023-06-10T12:01:34;4.03;;;2.70;;
21758;SDS011;11041;50.854;20.580;2023-06-10T12:04:04;2.90;;;2.70;;
21758;SDS011;11041;50.854;20.580;2023-06-10T12:06:40;3.67;;;2.40;;
21758;SDS011;11041;50.854;20.580;2023-06-10T12:09:17;2.60;;;2.40;;
21758;SDS011;11041;50.854;20.580;2023-06-10T12:11:57;2.88;;;2.67;;
21758;SDS011;11041;50.854;20.580;2023-06-10T12:17:20;2.95;;;2.75;;
21758;SDS011;11041;50.854;20.580;2023-06-10T12:19:49;3.92;;;2.92;;
21758;SDS011;11041;50.854;20.580;2023-06-10T12:22:17;3.10;;;2.85;;
21758;SDS011;11041;50.854;20.580;2023-06-10T12:24:56;3.03;;;2.83;;
21758;SDS011;11041;50.854;20.580;2023-06-10T12:27:31;3.15;;;2.92;;
21758;SDS011;11041;50.854;20.580;2023-06-10T12:30:00;4.32;;;3.22;;
21758;SDS011;11041;50.854;20.580;2023-06-10T12:32:43;3.80;;;3.45;;
21758;SDS011;11041;50.854;20.580;2023-06-10T12:35:33;3.67;;;3.38;;
21758;SDS011;11041;50.854;20.580;2023-06-10T12:37:59;3.58;;;3.35;;
21758;SDS011;11041;50.854;20.580;2023-06-10T12:40:35;3.55;;;3.25;;
21758;SDS011;11041;50.854;20.580;2023-06-10T12:43:08;4.53;;;3.30;;
21758;SDS011;11041;50.854;20.580;2023-06-10T12:45:37;3.90;;;3.45;;
21758;SDS011;11041;50.854;20.580;2023-06-10T12:50:51;3.47;;;3.28;;
21758;SDS011;11041;50.854;20.580;2023-06-10T12:53:19;5.40;;;3.63;;
21758;SDS011;11041;50.854;20.580;2023-06-10T12:55:49;3.70;;;3.40;;
21758;SDS011;11041;50.854;20.580;2023-06-10T12:58:18;5.47;;;3.65;;
21758;SDS011;11041;50.854;20.580;2023-06-10T13:00:47;3.75;;;3.45;;
21758;SDS011;11041;50.854;20.580;2023-06-10T13:03:14;3.88;;;3.58;;
21758;SDS011;11041;50.854;20.580;2023-06-10T13:05:43;3.85;;;3.55;;
21758;SDS011;11041;50.854;20.580;2023-06-10T13:08:09;3.97;;;3.45;;
21758;SDS011;11041;50.854;20.580;2023-06-10T13:10:36;3.92;;;3.50;;
21758;SDS011;11041;50.854;20.580;2023-06-10T13:13:03;4.15;;;3.60;;
21758;SDS011;11041;50.854;20.580;2023-06-10T13:15:33;3.55;;;3.15;;
21758;SDS011;11041;50.854;20.580;2023-06-10T13:18:03;4.30;;;3.40;;
21758;SDS011;11041;50.854;20.580;2023-06-10T13:20:30;4.13;;;3.20;;
21758;SDS011;11041;50.854;20.580;2023-06-10T13:22:57;3.50;;;3.13;;
21758;SDS011;11041;50.854;20.580;2023-06-10T13:25:24;3.45;;;2.90;;
21758;SDS011;11041;50.854;20.580;2023-06-10T13:27:50;5.65;;;3.00;;
21758;SDS011;11041;50.854;20.580;2023-06-10T13:30:17;4.05;;;2.97;;
21758;SDS011;11041;50.854;20.580;2023-06-10T13:32:43;3.17;;;2.88;;
21758;SDS011;11041;50.854;20.580;2023-06-10T13:35:10;3.88;;;2.97;;
21758;SDS011;11041;50.854;20.580;2023-06-10T13:37:36;3.85;;;2.92;;
21758;SDS011;11041;50.854;20.580;2023-06-10T13:40:03;2.70;;;2.50;;
21758;SDS011;11041;50.854;20.580;2023-06-10T13:42:31;4.90;;;2.75;;
21758;SDS011;11041;50.854;20.580;2023-06-10T13:44:57;3.75;;;2.75;;
21758;SDS011;11041;50.854;20.580;2023-06-10T13:47:24;3.92;;;2.67;;
21758;SDS011;11041;50.854;20.580;2023-06-10T13:49:51;3.95;;;2.80;;
21758;SDS011;11041;50.854;20.580;2023-06-10T13:52:17;2.92;;;2.65;;
21758;SDS011;11041;50.854;20.580;2023-06-10T13:54:44;3.28;;;2.70;;
21758;SDS011;11041;50.854;20.580;2023-06-10T13:57:11;3.08;;;2.80;;
21758;SDS011;11041;50.854;20.580;2023-06-10T13:59:37;2.80;;;2.60;;
21758;SDS011;11041;50.854;20.580;2023-06-10T14:02:04;5.78;;;2.92;;
21758;SDS011;11041;50.854;20.580;2023-06-10T14:04:31;3.25;;;2.95;;
21758;SDS011;11041;50.854;20.580;2023-06-10T14:06:58;3.42;;;3.13;;
21758;SDS011;11041;50.854;20.580;2023-06-10T14:09:25;3.72;;;3.20;;
21758;SDS011;11041;50.854;20.580;2023-06-10T14:11:52;3.00;;;2.78;;
21758;SDS011;11041;50.854;20.580;2023-06-10T14:14:19;3.13;;;2.78;;
21758;SDS011;11041;50.854;20.580;2023-06-10T14:16:46;3.88;;;3.42;;
21758;SDS011;11041;50.854;20.580;2023-06-10T14:19:12;3.30;;;2.97;;
21758;SDS011;11041;50.854;20.580;2023-06-10T14:21:39;3.35;;;3.00;;
21758;SDS011;11041;50.854;20.580;2023-06-10T14:24:06;3.20;;;2.90;;
21758;SDS011;11041;50.854;20.580;2023-06-10T14:26:32;4.03;;;2.60;;
21758;SDS011;11041;50.854;20.580;2023-06-10T14:28:59;7.32;;;3.97;;
21758;SDS011;11041;50.854;20.580;2023-06-10T14:31:26;7.28;;;6.50;;
21758;SDS011;11041;50.854;20.580;2023-06-10T14:33:52;3.67;;;3.38;;
21758;SDS011;11041;50.854;20.580;2023-06-10T14:36:19;3.35;;;2.92;;
21758;SDS011;11041;50.854;20.580;2023-06-10T14:38:45;6.32;;;2.92;;
21758;SDS011;11041;50.854;20.580;2023-06-10T14:41:12;2.65;;;2.45;;
21758;SDS011;11041;50.854;20.580;2023-06-10T14:43:38;4.80;;;3.50;;
21758;SDS011;11041;50.854;20.580;2023-06-10T14:46:05;4.32;;;3.30;;
21758;SDS011;11041;50.854;20.580;2023-06-10T14:48:32;3.58;;;3.10;;
21758;SDS011;11041;50.854;20.580;2023-06-10T14:50:59;4.88;;;2.78;;
21758;SDS011;11041;50.854;20.580;2023-06-10T14:53:25;3.30;;;2.97;;
21758;SDS011;11041;50.854;20.580;2023-06-10T14:55:52;3.75;;;3.08;;
21758;SDS011;11041;50.854;20.580;2023-06-10T14:58:18;6.82;;;3.00;;
21758;SDS011;11041;50.854;20.580;2023-06-10T15:00:45;3.63;;;2.78;;
21758;SDS011;11041;50.854;20.580;2023-06-10T15:03:11;4.30;;;2.88;;
21758;SDS011;11041;50.854;20.580;2023-06-10T15:05:38;4.57;;;4.00;;